sensor_id;sensor_type;location;lat;lon;timestamp;P1;durP1;ratioP1;P2;durP2;ratioP2
7833;SDS011;3962;42.696;23.354;2024-01-06T00:00:56;18.60;;;17.70;;
7833;SDS011;3962;42.696;23.354;2024-01-06T00:03:23;19.47;;;18.57;;
7833;SDS011;3962;42.696;23.354;2024-01-06T00:05:50;17.13;;;16.33;;
7833;SDS011;3962;42.696;23.354;2024-01-06T00:08:17;17.00;;;16.20;;
7833;SDS011;3962;42.696;23.354;2024-01-06T00:10:43;18.67;;;17.77;;
7833;SDS011;3962;42.696;23.354;2024-01-06T00:13:10;17.20;;;16.40;;
7833;SDS011;3962;42.696;23.354;2024-01-06T00:15:38;18.50;;;17.60;;
7833;SDS011;3962;42.696;23.354;2024-01-06T00:18:05;19.33;;;18.43;;
7833;SDS011;3962;42.696;23.354;2024-01-06T00:20:32;18.67;;;17.77;;
7833;SDS011;3962;42.696;23.354;2024-01-06T00:22:59;19.20;;;18.30;;
7833;SDS011;3962;42.696;23.354;2024-01-06T00:25:26;18.60;;;17.70;;
7833;SDS011;3962;42.696;23.354;2024-01-06T00:27:52;18.73;;;17.83;;
7833;SDS011;3962;42.696;23.354;2024-01-06T00:30:19;20.57;;;19.57;;
7833;SDS011;3962;42.696;23.354;2024-01-06T00:32:47;18.73;;;17.83;;
7833;SDS011;3962;42.696;23.354;2024-01-06T00:35:14;18.63;;;17.60;;
7833;SDS011;3962;42.696;23.354;2024-01-06T00:37:41;21.00;;;20.00;;
7833;SDS011;3962;42.696;23.354;2024-01-06T00:40:08;18.77;;;17.87;;
7833;SDS011;3962;42.696;23.354;2024-01-06T00:42:35;20.23;;;19.23;;
7833;SDS011;3962;42.696;23.354;2024-01-06T00:45:02;17.93;;;17.13;;
7833;SDS011;3962;42.696;23.354;2024-01-06T00:47:30;20.43;;;19.43;;
7833;SDS011;3962;42.696;23.354;2024-01-06T00:49:58;19.33;;;18.43;;
7833;SDS011;3962;42.696;23.354;2024-01-06T00:52:25;19.07;;;18.17;;
7833;SDS011;3962;42.696;23.354;2024-01-06T00:54:52;19.50;;;18.60;;
7833;SDS011;3962;42.696;23.354;2024-01-06T00:57:19;18.63;;;17.73;;
7833;SDS011;3962;42.696;23.354;2024-01-06T00:59:49;19.20;;;18.30;;
7833;SDS011;3962;42.696;23.354;2024-01-06T01:02:16;18.60;;;17.70;;
7833;SDS011;3962;42.696;23.354;2024-01-06T01:04:42;17.97;;;17.07;;
7833;SDS011;3962;42.696;23.354;2024-01-06T01:07:11;18.83;;;17.93;;
7833;SDS011;3962;42.696;23.354;2024-01-06T01:09:38;18.90;;;18.00;;
7833;SDS011;3962;42.696;23.354;2024-01-06T01:12:05;19.57;;;18.67;;
7833;SDS011;3962;42.696;23.354;2024-01-06T01:14:32;19.17;;;18.27;;
7833;SDS011;3962;42.696;23.354;2024-01-06T01:16:59;19.20;;;18.30;;
7833;SDS011;3962;42.696;23.354;2024-01-06T01:19:26;21.30;;;20.30;;
7833;SDS011;3962;42.696;23.354;2024-01-06T01:21:53;16.97;;;16.17;;
7833;SDS011;3962;42.696;23.354;2024-01-06T01:24:22;19.27;;;18.37;;
7833;SDS011;3962;42.696;23.354;2024-01-06T01:26:48;18.50;;;17.60;;
7833;SDS011;3962;42.696;23.354;2024-01-06T01:29:15;21.47;;;20.47;;
7833;SDS011;3962;42.696;23.354;2024-01-06T01:31:45;19.87;;;18.87;;
7833;SDS011;3962;42.696;23.354;2024-01-06T01:34:12;19.13;;;18.23;;
7833;SDS011;3962;42.696;23.354;2024-01-06T01:36:38;20.43;;;19.43;;
7833;SDS011;3962;42.696;23.354;2024-01-06T01:39:06;20.53;;;19.53;;
7833;SDS011;3962;42.696;23.354;2024-01-06T01:41:34;22.70;;;21.50;;
7833;SDS011;3962;42.696;23.354;2024-01-06T01:44:01;24.07;;;22.87;;
7833;SDS011;3962;42.696;23.354;2024-01-06T01:46:29;21.93;;;20.83;;
7833;SDS011;3962;42.696;23.354;2024-01-06T01:48:57;21.67;;;20.67;;
7833;SDS011;3962;42.696;23.354;2024-01-06T01:51:26;22.57;;;21.47;;
7833;SDS011;3962;42.696;23.354;2024-01-06T01:53:55;22.70;;;21.60;;
7833;SDS011;3962;42.696;23.354;2024-01-06T01:56:22;19.00;;;18.10;;
7833;SDS011;3962;42.696;23.354;2024-01-06T01:58:52;19.60;;;18.70;;
7833;SDS011;3962;42.696;23.354;2024-01-06T02:01:19;23.17;;;22.07;;
7833;SDS011;3962;42.696;23.354;2024-01-06T02:03:46;24.37;;;23.17;;
7833;SDS011;3962;42.696;23.354;2024-01-06T02:06:13;23.07;;;21.87;;
7833;SDS011;3962;42.696;23.354;2024-01-06T02:08:39;22.43;;;21.33;;
7833;SDS011;3962;42.696;23.354;2024-01-06T02:11:06;22.13;;;21.03;;
7833;SDS011;3962;42.696;23.354;2024-01-06T02:13:33;24.33;;;23.07;;
7833;SDS011;3962;42.696;23.354;2024-01-06T02:16:03;24.23;;;23.03;;
7833;SDS011;3962;42.696;23.354;2024-01-06T02:18:31;25.43;;;24.17;;
7833;SDS011;3962;42.696;23.354;2024-01-06T02:20:59;18.37;;;17.57;;
7833;SDS011;3962;42.696;23.354;2024-01-06T02:23:28;24.13;;;22.93;;
7833;SDS011;3962;42.696;23.354;2024-01-06T02:25:56;25.40;;;24.10;;
7833;SDS011;3962;42.696;23.354;2024-01-06T02:28:23;24.27;;;23.07;;
7833;SDS011;3962;42.696;23.354;2024-01-06T02:30:49;20.27;;;19.37;;
7833;SDS011;3962;42.696;23.354;2024-01-06T02:33:16;26.47;;;25.17;;
7833;SDS011;3962;42.696;23.354;2024-01-06T02:35:44;22.07;;;21.03;;
7833;SDS011;3962;42.696;23.354;2024-01-06T02:38:11;23.30;;;22.20;;
7833;SDS011;3962;42.696;23.354;2024-01-06T02:40:39;23.40;;;22.27;;
7833;SDS011;3962;42.696;23.354;2024-01-06T02:43:07;24.37;;;23.17;;
7833;SDS011;3962;42.696;23.354;2024-01-06T02:45:34;25.77;;;24.50;;
7833;SDS011;3962;42.696;23.354;2024-01-06T02:48:01;24.57;;;23.37;;
7833;SDS011;3962;42.696;23.354;2024-01-06T02:50:28;24.70;;;23.50;;
7833;SDS011;3962;42.696;23.354;2024-01-06T02:52:55;25.93;;;24.63;;
7833;SDS011;3962;42.696;23.354;2024-01-06T02:55:22;24.87;;;23.67;;
7833;SDS011;3962;42.696;23.354;2024-01-06T02:57:50;24.90;;;23.70;;
7833;SDS011;3962;42.696;23.354;2024-01-06T03:00:17;25.80;;;24.50;;
7833;SDS011;3962;42.696;23.354;2024-01-06T03:02:44;26.97;;;25.67;;
7833;SDS011;3962;42.696;23.354;2024-01-06T03:05:11;25.87;;;24.37;;
7833;SDS011;3962;42.696;23.354;2024-01-06T03:07:38;22.57;;;21.47;;
7833;SDS011;3962;42.696;23.354;2024-01-06T03:10:05;24.87;;;23.67;;
7833;SDS011;3962;42.696;23.354;2024-01-06T03:12:32;24.30;;;23.10;;
7833;SDS011;3962;42.696;23.354;2024-01-06T03:15:00;24.20;;;23.00;;
7833;SDS011;3962;42.696;23.354;2024-01-06T03:17:27;24.87;;;23.67;;
7833;SDS011;3962;42.696;23.354;2024-01-06T03:19:54;23.97;;;22.77;;
7833;SDS011;3962;42.696;23.354;2024-01-06T03:22:21;23.57;;;22.37;;
7833;SDS011;3962;42.696;23.354;2024-01-06T03:24:48;20.87;;;19.87;;
7833;SDS011;3962;42.696;23.354;2024-01-06T03:27:14;21.97;;;20.87;;
7833;SDS011;3962;42.696;23.354;2024-01-06T03:29:41;21.20;;;20.20;;
7833;SDS011;3962;42.696;23.354;2024-01-06T03:32:09;22.90;;;21.80;;
7833;SDS011;3962;42.696;23.354;2024-01-06T03:34:36;22.83;;;21.73;;
7833;SDS011;3962;42.696;23.354;2024-01-06T03:37:03;21.47;;;20.47;;
7833;SDS011;3962;42.696;23.354;2024-01-06T03:39:30;24.77;;;23.57;;
7833;SDS011;3962;42.696;23.354;2024-01-06T03:41:57;22.27;;;21.23;;
7833;SDS011;3962;42.696;23.354;2024-01-06T03:44:24;21.30;;;20.30;;
7833;SDS011;3962;42.696;23.354;2024-01-06T03:46:55;22.37;;;21.27;;
7833;SDS011;3962;42.696;23.354;2024-01-06T03:49:23;20.50;;;19.50;;
7833;SDS011;3962;42.696;23.354;2024-01-06T03:51:50;22.40;;;21.30;;
7833;SDS011;3962;42.696;23.354;2024-01-06T03:54:17;23.07;;;21.97;;
7833;SDS011;3962;42.696;23.354;2024-01-06T03:56:44;21.43;;;20.43;;
7833;SDS011;3962;42.696;23.354;2024-01-06T03:59:11;22.90;;;21.80;;
7833;SDS011;3962;42.696;23.354;2024-01-06T04:01:37;22.97;;;21.77;;
7833;SDS011;3962;42.696;23.354;2024-01-06T04:04:04;21.90;;;20.80;;
7833;SDS011;3962;42.696;23.354;2024-01-06T04:06:32;19.77;;;18.87;;
7833;SDS011;3962;42.696;23.354;2024-01-06T04:08:59;20.30;;;19.40;;
7833;SDS011;3962;42.696;23.354;2024-01-06T04:11:27;21.27;;;20.27;;
7833;SDS011;3962;42.696;23.354;2024-01-06T04:13:53;22.00;;;21.00;;
7833;SDS011;3962;42.696;23.354;2024-01-06T04:16:20;21.60;;;20.60;;
7833;SDS011;3962;42.696;23.354;2024-01-06T04:18:47;22.43;;;21.33;;
7833;SDS011;3962;42.696;23.354;2024-01-06T04:21:14;20.70;;;19.60;;
7833;SDS011;3962;42.696;23.354;2024-01-06T04:23:42;19.40;;;18.50;;
7833;SDS011;3962;42.696;23.354;2024-01-06T04:26:09;19.23;;;18.27;;
7833;SDS011;3962;42.696;23.354;2024-01-06T04:28:36;20.10;;;19.20;;
7833;SDS011;3962;42.696;23.354;2024-01-06T04:31:03;21.20;;;20.20;;
7833;SDS011;3962;42.696;23.354;2024-01-06T04:33:30;20.90;;;19.90;;
7833;SDS011;3962;42.696;23.354;2024-01-06T04:35:58;20.10;;;19.20;;
7833;SDS011;3962;42.696;23.354;2024-01-06T04:38:27;20.50;;;19.50;;
7833;SDS011;3962;42.696;23.354;2024-01-06T04:40:55;21.53;;;20.33;;
7833;SDS011;3962;42.696;23.354;2024-01-06T04:43:21;21.07;;;20.07;;
7833;SDS011;3962;42.696;23.354;2024-01-06T04:45:48;21.63;;;20.50;;
7833;SDS011;3962;42.696;23.354;2024-01-06T04:48:16;20.20;;;19.20;;
7833;SDS011;3962;42.696;23.354;2024-01-06T04:50:42;22.13;;;21.13;;
7833;SDS011;3962;42.696;23.354;2024-01-06T04:53:09;20.90;;;19.93;;
7833;SDS011;3962;42.696;23.354;2024-01-06T04:55:36;18.80;;;17.90;;
7833;SDS011;3962;42.696;23.354;2024-01-06T04:58:04;21.40;;;20.40;;
7833;SDS011;3962;42.696;23.354;2024-01-06T05:00:31;20.67;;;19.57;;
7833;SDS011;3962;42.696;23.354;2024-01-06T05:03:01;21.77;;;20.77;;
7833;SDS011;3962;42.696;23.354;2024-01-06T05:05:28;19.70;;;18.80;;
7833;SDS011;3962;42.696;23.354;2024-01-06T05:07:54;20.43;;;19.53;;
7833;SDS011;3962;42.696;23.354;2024-01-06T05:10:21;20.33;;;19.33;;
7833;SDS011;3962;42.696;23.354;2024-01-06T05:12:48;19.63;;;18.73;;
7833;SDS011;3962;42.696;23.354;2024-01-06T05:15:16;20.60;;;19.60;;
7833;SDS011;3962;42.696;23.354;2024-01-06T05:17:43;19.83;;;18.83;;
7833;SDS011;3962;42.696;23.354;2024-01-06T05:20:10;21.70;;;20.70;;
7833;SDS011;3962;42.696;23.354;2024-01-06T05:22:37;19.73;;;18.80;;
7833;SDS011;3962;42.696;23.354;2024-01-06T05:25:04;19.93;;;19.03;;
7833;SDS011;3962;42.696;23.354;2024-01-06T05:27:31;21.53;;;20.53;;
7833;SDS011;3962;42.696;23.354;2024-01-06T05:29:58;21.20;;;20.20;;
7833;SDS011;3962;42.696;23.354;2024-01-06T05:32:26;19.53;;;18.53;;
7833;SDS011;3962;42.696;23.354;2024-01-06T05:34:53;20.87;;;19.87;;
7833;SDS011;3962;42.696;23.354;2024-01-06T05:37:20;21.60;;;20.60;;
7833;SDS011;3962;42.696;23.354;2024-01-06T05:39:47;21.47;;;20.47;;
7833;SDS011;3962;42.696;23.354;2024-01-06T05:42:12;20.47;;;19.47;;
7833;SDS011;3962;42.696;23.354;2024-01-06T05:44:40;20.50;;;19.50;;
7833;SDS011;3962;42.696;23.354;2024-01-06T05:47:06;19.80;;;18.80;;
7833;SDS011;3962;42.696;23.354;2024-01-06T05:49:35;20.43;;;19.43;;
7833;SDS011;3962;42.696;23.354;2024-01-06T05:52:02;20.77;;;19.73;;
7833;SDS011;3962;42.696;23.354;2024-01-06T05:54:29;20.63;;;19.63;;
7833;SDS011;3962;42.696;23.354;2024-01-06T05:56:57;18.27;;;17.47;;
7833;SDS011;3962;42.696;23.354;2024-01-06T05:59:24;25.03;;;23.53;;
7833;SDS011;3962;42.696;23.354;2024-01-06T06:01:51;18.30;;;17.50;;
7833;SDS011;3962;42.696;23.354;2024-01-06T06:04:18;18.13;;;17.27;;
7833;SDS011;3962;42.696;23.354;2024-01-06T06:06:46;17.70;;;16.87;;
7833;SDS011;3962;42.696;23.354;2024-01-06T06:09:13;17.87;;;17.07;;
7833;SDS011;3962;42.696;23.354;2024-01-06T06:11:40;15.47;;;14.77;;
7833;SDS011;3962;42.696;23.354;2024-01-06T06:14:08;18.50;;;17.60;;
7833;SDS011;3962;42.696;23.354;2024-01-06T06:16:35;16.97;;;16.17;;
7833;SDS011;3962;42.696;23.354;2024-01-06T06:19:02;18.03;;;17.23;;
7833;SDS011;3962;42.696;23.354;2024-01-06T06:21:28;17.73;;;16.93;;
7833;SDS011;3962;42.696;23.354;2024-01-06T06:23:57;17.47;;;16.67;;
7833;SDS011;3962;42.696;23.354;2024-01-06T06:26:23;19.33;;;18.33;;
7833;SDS011;3962;42.696;23.354;2024-01-06T06:28:50;19.97;;;18.77;;
7833;SDS011;3962;42.696;23.354;2024-01-06T06:31:17;18.20;;;17.40;;
7833;SDS011;3962;42.696;23.354;2024-01-06T06:33:44;17.60;;;16.80;;
7833;SDS011;3962;42.696;23.354;2024-01-06T06:36:11;18.17;;;17.37;;
7833;SDS011;3962;42.696;23.354;2024-01-06T06:38:37;16.80;;;16.10;;
7833;SDS011;3962;42.696;23.354;2024-01-06T06:41:06;20.27;;;19.17;;
7833;SDS011;3962;42.696;23.354;2024-01-06T06:43:33;16.50;;;15.77;;
7833;SDS011;3962;42.696;23.354;2024-01-06T06:45:59;18.47;;;17.57;;
7833;SDS011;3962;42.696;23.354;2024-01-06T06:48:27;18.77;;;17.87;;
7833;SDS011;3962;42.696;23.354;2024-01-06T06:50:54;18.10;;;17.07;;
7833;SDS011;3962;42.696;23.354;2024-01-06T06:53:21;17.37;;;16.57;;
7833;SDS011;3962;42.696;23.354;2024-01-06T06:55:48;19.40;;;18.43;;
7833;SDS011;3962;42.696;23.354;2024-01-06T06:58:16;18.03;;;17.13;;
7833;SDS011;3962;42.696;23.354;2024-01-06T07:00:43;17.77;;;16.87;;
7833;SDS011;3962;42.696;23.354;2024-01-06T07:03:09;17.97;;;17.10;;
7833;SDS011;3962;42.696;23.354;2024-01-06T07:05:36;16.93;;;16.10;;
7833;SDS011;3962;42.696;23.354;2024-01-06T07:08:04;15.77;;;14.97;;
7833;SDS011;3962;42.696;23.354;2024-01-06T07:10:31;16.03;;;15.30;;
7833;SDS011;3962;42.696;23.354;2024-01-06T07:12:58;17.40;;;16.33;;
7833;SDS011;3962;42.696;23.354;2024-01-06T07:15:26;17.67;;;16.70;;
7833;SDS011;3962;42.696;23.354;2024-01-06T07:17:53;15.13;;;14.43;;
7833;SDS011;3962;42.696;23.354;2024-01-06T07:20:20;16.70;;;15.70;;
7833;SDS011;3962;42.696;23.354;2024-01-06T07:22:47;18.13;;;16.93;;
7833;SDS011;3962;42.696;23.354;2024-01-06T07:25:14;17.53;;;16.53;;
7833;SDS011;3962;42.696;23.354;2024-01-06T07:27:40;14.27;;;13.60;;
7833;SDS011;3962;42.696;23.354;2024-01-06T07:30:08;14.43;;;13.70;;
7833;SDS011;3962;42.696;23.354;2024-01-06T07:32:36;17.60;;;16.80;;
7833;SDS011;3962;42.696;23.354;2024-01-06T07:35:03;17.33;;;16.33;;
7833;SDS011;3962;42.696;23.354;2024-01-06T07:37:31;16.67;;;15.87;;
7833;SDS011;3962;42.696;23.354;2024-01-06T07:39:58;16.63;;;15.83;;
7833;SDS011;3962;42.696;23.354;2024-01-06T07:42:24;17.50;;;16.50;;
7833;SDS011;3962;42.696;23.354;2024-01-06T07:44:51;16.90;;;16.13;;
7833;SDS011;3962;42.696;23.354;2024-01-06T07:47:19;16.60;;;15.80;;
7833;SDS011;3962;42.696;23.354;2024-01-06T07:49:47;17.10;;;16.20;;
7833;SDS011;3962;42.696;23.354;2024-01-06T07:52:14;18.80;;;17.77;;
7833;SDS011;3962;42.696;23.354;2024-01-06T07:54:40;18.17;;;17.37;;
7833;SDS011;3962;42.696;23.354;2024-01-06T07:57:07;16.40;;;15.60;;
7833;SDS011;3962;42.696;23.354;2024-01-06T07:59:36;18.30;;;17.43;;
7833;SDS011;3962;42.696;23.354;2024-01-06T08:02:03;17.53;;;16.63;;
7833;SDS011;3962;42.696;23.354;2024-01-06T08:04:30;17.90;;;16.90;;
7833;SDS011;3962;42.696;23.354;2024-01-06T08:06:58;17.03;;;16.23;;
7833;SDS011;3962;42.696;23.354;2024-01-06T08:09:25;18.03;;;17.23;;
7833;SDS011;3962;42.696;23.354;2024-01-06T08:11:52;16.50;;;15.70;;
7833;SDS011;3962;42.696;23.354;2024-01-06T08:14:19;18.47;;;17.50;;
7833;SDS011;3962;42.696;23.354;2024-01-06T08:16:46;18.00;;;17.20;;
7833;SDS011;3962;42.696;23.354;2024-01-06T08:19:12;21.20;;;20.00;;
7833;SDS011;3962;42.696;23.354;2024-01-06T08:21:39;19.70;;;18.60;;
7833;SDS011;3962;42.696;23.354;2024-01-06T08:24:08;19.90;;;18.90;;
7833;SDS011;3962;42.696;23.354;2024-01-06T08:26:34;18.63;;;17.73;;
7833;SDS011;3962;42.696;23.354;2024-01-06T08:29:01;18.80;;;17.93;;
7833;SDS011;3962;42.696;23.354;2024-01-06T08:31:28;18.70;;;17.70;;
7833;SDS011;3962;42.696;23.354;2024-01-06T08:33:55;18.80;;;17.90;;
7833;SDS011;3962;42.696;23.354;2024-01-06T08:36:22;17.37;;;16.57;;
7833;SDS011;3962;42.696;23.354;2024-01-06T08:38:48;18.53;;;17.60;;
7833;SDS011;3962;42.696;23.354;2024-01-06T08:41:17;17.30;;;16.20;;
7833;SDS011;3962;42.696;23.354;2024-01-06T08:43:43;17.30;;;16.50;;
7833;SDS011;3962;42.696;23.354;2024-01-06T08:46:10;17.47;;;16.67;;
7833;SDS011;3962;42.696;23.354;2024-01-06T08:48:37;18.10;;;17.30;;
7833;SDS011;3962;42.696;23.354;2024-01-06T08:51:04;15.30;;;14.60;;
7833;SDS011;3962;42.696;23.354;2024-01-06T08:53:33;16.10;;;15.37;;
7833;SDS011;3962;42.696;23.354;2024-01-06T08:56:00;13.87;;;13.27;;
7833;SDS011;3962;42.696;23.354;2024-01-06T08:58:29;15.57;;;14.87;;
7833;SDS011;3962;42.696;23.354;2024-01-06T09:00:55;18.47;;;17.17;;
7833;SDS011;3962;42.696;23.354;2024-01-06T09:03:22;14.33;;;13.53;;
7833;SDS011;3962;42.696;23.354;2024-01-06T09:05:51;20.30;;;18.63;;
7833;SDS011;3962;42.696;23.354;2024-01-06T09:08:18;16.33;;;15.53;;
7833;SDS011;3962;42.696;23.354;2024-01-06T09:10:45;17.37;;;16.43;;
7833;SDS011;3962;42.696;23.354;2024-01-06T09:13:12;16.30;;;15.50;;
7833;SDS011;3962;42.696;23.354;2024-01-06T09:15:41;16.20;;;15.37;;
7833;SDS011;3962;42.696;23.354;2024-01-06T09:18:08;16.10;;;15.33;;
7833;SDS011;3962;42.696;23.354;2024-01-06T09:20:35;14.60;;;13.87;;
7833;SDS011;3962;42.696;23.354;2024-01-06T09:23:04;15.97;;;15.17;;
7833;SDS011;3962;42.696;23.354;2024-01-06T09:25:33;18.63;;;17.43;;
7833;SDS011;3962;42.696;23.354;2024-01-06T09:28:00;17.43;;;16.63;;
7833;SDS011;3962;42.696;23.354;2024-01-06T09:30:26;14.93;;;14.13;;
7833;SDS011;3962;42.696;23.354;2024-01-06T09:32:55;14.87;;;14.17;;
7833;SDS011;3962;42.696;23.354;2024-01-06T09:35:21;16.97;;;16.10;;
7833;SDS011;3962;42.696;23.354;2024-01-06T09:37:49;16.17;;;15.37;;
7833;SDS011;3962;42.696;23.354;2024-01-06T09:40:18;17.00;;;16.13;;
7833;SDS011;3962;42.696;23.354;2024-01-06T09:42:48;16.93;;;15.97;;
7833;SDS011;3962;42.696;23.354;2024-01-06T09:45:15;18.20;;;17.10;;
7833;SDS011;3962;42.696;23.354;2024-01-06T09:47:42;15.73;;;14.83;;
7833;SDS011;3962;42.696;23.354;2024-01-06T09:50:16;20.10;;;18.83;;
7833;SDS011;3962;42.696;23.354;2024-01-06T09:52:45;17.67;;;16.67;;
7833;SDS011;3962;42.696;23.354;2024-01-06T09:55:19;16.73;;;15.83;;
7833;SDS011;3962;42.696;23.354;2024-01-06T09:57:51;17.40;;;16.40;;
7833;SDS011;3962;42.696;23.354;2024-01-06T10:00:18;16.07;;;15.27;;
7833;SDS011;3962;42.696;23.354;2024-01-06T10:02:46;16.20;;;15.40;;
7833;SDS011;3962;42.696;23.354;2024-01-06T10:05:14;17.13;;;16.03;;
7833;SDS011;3962;42.696;23.354;2024-01-06T10:07:43;16.43;;;15.63;;
7833;SDS011;3962;42.696;23.354;2024-01-06T10:10:10;17.70;;;16.73;;
7833;SDS011;3962;42.696;23.354;2024-01-06T10:12:38;18.00;;;16.83;;
7833;SDS011;3962;42.696;23.354;2024-01-06T10:15:05;14.80;;;14.10;;
7833;SDS011;3962;42.696;23.354;2024-01-06T10:17:32;16.60;;;15.70;;
7833;SDS011;3962;42.696;23.354;2024-01-06T10:19:59;16.33;;;15.63;;
7833;SDS011;3962;42.696;23.354;2024-01-06T10:22:27;15.77;;;14.97;;
7833;SDS011;3962;42.696;23.354;2024-01-06T10:24:54;17.23;;;16.40;;
7833;SDS011;3962;42.696;23.354;2024-01-06T10:27:21;17.97;;;17.07;;
7833;SDS011;3962;42.696;23.354;2024-01-06T10:29:48;16.50;;;15.70;;
7833;SDS011;3962;42.696;23.354;2024-01-06T10:32:16;15.70;;;14.90;;
7833;SDS011;3962;42.696;23.354;2024-01-06T10:34:43;17.43;;;16.63;;
7833;SDS011;3962;42.696;23.354;2024-01-06T10:37:11;17.23;;;16.40;;
7833;SDS011;3962;42.696;23.354;2024-01-06T10:39:39;16.50;;;15.70;;
7833;SDS011;3962;42.696;23.354;2024-01-06T10:42:06;18.03;;;17.17;;
7833;SDS011;3962;42.696;23.354;2024-01-06T10:44:36;16.00;;;15.10;;
7833;SDS011;3962;42.696;23.354;2024-01-06T10:47:05;16.47;;;15.67;;
7833;SDS011;3962;42.696;23.354;2024-01-06T10:49:33;16.47;;;15.57;;
7833;SDS011;3962;42.696;23.354;2024-01-06T10:52:01;17.00;;;16.10;;
7833;SDS011;3962;42.696;23.354;2024-01-06T10:54:28;16.97;;;16.17;;
7833;SDS011;3962;42.696;23.354;2024-01-06T10:56:57;17.23;;;16.43;;
7833;SDS011;3962;42.696;23.354;2024-01-06T10:59:25;16.70;;;15.90;;
7833;SDS011;3962;42.696;23.354;2024-01-06T11:01:56;15.13;;;14.40;;
7833;SDS011;3962;42.696;23.354;2024-01-06T11:04:25;16.87;;;16.00;;
7833;SDS011;3962;42.696;23.354;2024-01-06T11:06:52;13.93;;;13.20;;
7833;SDS011;3962;42.696;23.354;2024-01-06T11:09:21;17.70;;;16.90;;
7833;SDS011;3962;42.696;23.354;2024-01-06T11:11:50;15.30;;;14.53;;
7833;SDS011;3962;42.696;23.354;2024-01-06T11:14:23;16.43;;;15.53;;
7833;SDS011;3962;42.696;23.354;2024-01-06T11:16:51;15.13;;;14.43;;
7833;SDS011;3962;42.696;23.354;2024-01-06T11:22:23;15.67;;;14.90;;
7833;SDS011;3962;42.696;23.354;2024-01-06T11:24:52;14.37;;;13.67;;
7833;SDS011;3962;42.696;23.354;2024-01-06T11:27:22;14.90;;;14.20;;
7833;SDS011;3962;42.696;23.354;2024-01-06T11:29:53;15.47;;;14.77;;
7833;SDS011;3962;42.696;23.354;2024-01-06T11:32:20;16.33;;;15.53;;
7833;SDS011;3962;42.696;23.354;2024-01-06T11:34:52;15.90;;;15.13;;
7833;SDS011;3962;42.696;23.354;2024-01-06T11:37:24;15.10;;;14.40;;
7833;SDS011;3962;42.696;23.354;2024-01-06T11:39:52;16.13;;;15.43;;
7833;SDS011;3962;42.696;23.354;2024-01-06T11:42:19;13.73;;;13.13;;
7833;SDS011;3962;42.696;23.354;2024-01-06T11:44:50;14.13;;;13.40;;
7833;SDS011;3962;42.696;23.354;2024-01-06T11:47:18;15.07;;;14.37;;
7833;SDS011;3962;42.696;23.354;2024-01-06T11:49:48;14.30;;;13.53;;
7833;SDS011;3962;42.696;23.354;2024-01-06T11:52:20;15.13;;;14.43;;
7833;SDS011;3962;42.696;23.354;2024-01-06T11:54:48;14.53;;;13.93;;
7833;SDS011;3962;42.696;23.354;2024-01-06T11:57:15;12.30;;;11.80;;
7833;SDS011;3962;42.696;23.354;2024-01-06T11:59:42;13.73;;;13.13;;
7833;SDS011;3962;42.696;23.354;2024-01-06T12:02:10;13.80;;;13.20;;
7833;SDS011;3962;42.696;23.354;2024-01-06T12:04:39;13.33;;;12.73;;
7833;SDS011;3962;42.696;23.354;2024-01-06T12:07:07;11.27;;;10.77;;
7833;SDS011;3962;42.696;23.354;2024-01-06T12:09:34;13.87;;;13.10;;
7833;SDS011;3962;42.696;23.354;2024-01-06T12:12:02;14.17;;;13.47;;
7833;SDS011;3962;42.696;23.354;2024-01-06T12:14:30;14.20;;;13.60;;
7833;SDS011;3962;42.696;23.354;2024-01-06T12:16:58;12.47;;;11.97;;
7833;SDS011;3962;42.696;23.354;2024-01-06T12:19:28;12.13;;;11.63;;
7833;SDS011;3962;42.696;23.354;2024-01-06T12:21:57;13.07;;;12.47;;
7833;SDS011;3962;42.696;23.354;2024-01-06T12:24:26;15.17;;;14.27;;
7833;SDS011;3962;42.696;23.354;2024-01-06T12:26:55;15.00;;;14.30;;
7833;SDS011;3962;42.696;23.354;2024-01-06T12:29:23;13.27;;;12.67;;
7833;SDS011;3962;42.696;23.354;2024-01-06T12:31:53;14.17;;;13.47;;
7833;SDS011;3962;42.696;23.354;2024-01-06T12:34:20;12.70;;;12.03;;
7833;SDS011;3962;42.696;23.354;2024-01-06T12:36:51;13.57;;;12.97;;
7833;SDS011;3962;42.696;23.354;2024-01-06T12:39:21;14.47;;;13.73;;
7833;SDS011;3962;42.696;23.354;2024-01-06T12:41:50;12.43;;;11.83;;
7833;SDS011;3962;42.696;23.354;2024-01-06T12:44:17;13.53;;;12.83;;
7833;SDS011;3962;42.696;23.354;2024-01-06T12:46:44;13.57;;;12.97;;
7833;SDS011;3962;42.696;23.354;2024-01-06T12:49:11;11.17;;;10.67;;
7833;SDS011;3962;42.696;23.354;2024-01-06T12:51:38;12.83;;;12.23;;
7833;SDS011;3962;42.696;23.354;2024-01-06T12:54:05;12.90;;;12.30;;
7833;SDS011;3962;42.696;23.354;2024-01-06T12:56:34;13.30;;;12.70;;
7833;SDS011;3962;42.696;23.354;2024-01-06T12:59:00;13.17;;;12.57;;
7833;SDS011;3962;42.696;23.354;2024-01-06T13:01:27;14.63;;;13.93;;
7833;SDS011;3962;42.696;23.354;2024-01-06T13:03:54;14.50;;;13.73;;
7833;SDS011;3962;42.696;23.354;2024-01-06T13:06:24;14.63;;;13.90;;
7833;SDS011;3962;42.696;23.354;2024-01-06T13:08:51;12.90;;;12.30;;
7833;SDS011;3962;42.696;23.354;2024-01-06T13:11:18;11.73;;;11.23;;
7833;SDS011;3962;42.696;23.354;2024-01-06T13:13:47;14.53;;;13.40;;
7833;SDS011;3962;42.696;23.354;2024-01-06T13:16:14;12.43;;;11.83;;
7833;SDS011;3962;42.696;23.354;2024-01-06T13:18:41;11.77;;;11.27;;
7833;SDS011;3962;42.696;23.354;2024-01-06T13:21:08;12.17;;;11.57;;
7833;SDS011;3962;42.696;23.354;2024-01-06T13:23:34;11.47;;;10.97;;
7833;SDS011;3962;42.696;23.354;2024-01-06T13:26:02;12.67;;;12.07;;
7833;SDS011;3962;42.696;23.354;2024-01-06T13:28:29;11.77;;;11.27;;
7833;SDS011;3962;42.696;23.354;2024-01-06T13:30:57;12.60;;;11.90;;
7833;SDS011;3962;42.696;23.354;2024-01-06T13:33:25;12.33;;;11.83;;
7833;SDS011;3962;42.696;23.354;2024-01-06T13:35:52;12.07;;;11.47;;
7833;SDS011;3962;42.696;23.354;2024-01-06T13:38:19;9.87;;;9.47;;
7833;SDS011;3962;42.696;23.354;2024-01-06T13:40:47;11.87;;;11.33;;
7833;SDS011;3962;42.696;23.354;2024-01-06T13:43:14;13.23;;;12.63;;
7833;SDS011;3962;42.696;23.354;2024-01-06T13:45:42;11.47;;;10.97;;
7833;SDS011;3962;42.696;23.354;2024-01-06T13:48:11;12.57;;;11.97;;
7833;SDS011;3962;42.696;23.354;2024-01-06T13:50:38;11.60;;;11.00;;
7833;SDS011;3962;42.696;23.354;2024-01-06T13:53:05;11.40;;;10.90;;
7833;SDS011;3962;42.696;23.354;2024-01-06T13:55:32;12.37;;;11.87;;
7833;SDS011;3962;42.696;23.354;2024-01-06T13:57:59;12.93;;;12.33;;
7833;SDS011;3962;42.696;23.354;2024-01-06T14:00:26;10.73;;;10.23;;
7833;SDS011;3962;42.696;23.354;2024-01-06T14:02:53;11.93;;;11.43;;
7833;SDS011;3962;42.696;23.354;2024-01-06T14:05:23;12.90;;;12.30;;
7833;SDS011;3962;42.696;23.354;2024-01-06T14:07:50;13.40;;;12.80;;
7833;SDS011;3962;42.696;23.354;2024-01-06T14:10:17;12.83;;;12.23;;
7833;SDS011;3962;42.696;23.354;2024-01-06T14:12:44;12.17;;;11.50;;
7833;SDS011;3962;42.696;23.354;2024-01-06T14:15:11;13.83;;;13.03;;
7833;SDS011;3962;42.696;23.354;2024-01-06T14:17:38;12.30;;;11.80;;
7833;SDS011;3962;42.696;23.354;2024-01-06T14:20:06;12.47;;;11.90;;
7833;SDS011;3962;42.696;23.354;2024-01-06T14:22:35;11.23;;;10.73;;
7833;SDS011;3962;42.696;23.354;2024-01-06T14:25:04;12.23;;;11.63;;
7833;SDS011;3962;42.696;23.354;2024-01-06T14:27:31;13.20;;;12.50;;
7833;SDS011;3962;42.696;23.354;2024-01-06T14:29:58;11.87;;;11.37;;
7833;SDS011;3962;42.696;23.354;2024-01-06T14:32:26;15.53;;;14.67;;
7833;SDS011;3962;42.696;23.354;2024-01-06T14:34:53;13.87;;;13.20;;
7833;SDS011;3962;42.696;23.354;2024-01-06T14:37:20;11.13;;;10.63;;
7833;SDS011;3962;42.696;23.354;2024-01-06T14:39:49;13.30;;;12.70;;